createdAt,value
2018-09-12T00:00:45.083Z,2.70
2018-09-12T00:03:12.023Z,2.72
2018-09-12T00:05:38.980Z,2.50
2018-09-12T00:08:05.918Z,2.52
2018-09-12T00:10:32.868Z,2.60
2018-09-12T00:12:59.795Z,2.47
2018-09-12T00:15:27.004Z,2.47
2018-09-12T00:17:53.933Z,2.17
2018-09-12T00:20:20.832Z,2.60
2018-09-12T00:22:47.827Z,2.40
2018-09-12T00:25:14.732Z,2.20
2018-09-12T00:27:41.687Z,2.42
2018-09-12T00:30:08.590Z,2.45
2018-09-12T00:32:35.544Z,2.92
2018-09-12T00:35:02.482Z,3.50
2018-09-12T00:37:29.426Z,3.30
2018-09-12T00:39:56.624Z,2.92
2018-09-12T00:42:23.602Z,2.47
2018-09-12T00:44:50.580Z,2.80
2018-09-12T00:47:17.508Z,2.55
2018-09-12T00:49:44.540Z,2.52
2018-09-12T00:52:11.540Z,2.60
2018-09-12T00:54:39.052Z,2.58
2018-09-12T00:57:05.956Z,2.10
2018-09-12T00:59:32.925Z,2.33
2018-09-12T01:01:59.844Z,2.90
2018-09-12T01:04:26.806Z,2.50
2018-09-12T01:06:54.553Z,2.40
2018-09-12T01:09:21.448Z,2.30
2018-09-12T01:11:48.368Z,2.40
2018-09-12T01:14:15.328Z,2.15
2018-09-12T01:16:42.274Z,2.40
2018-09-12T01:19:09.184Z,2.20
2018-09-12T01:21:36.101Z,2.27
2018-09-12T01:24:03.043Z,2.30
2018-09-12T01:26:29.956Z,2.52
2018-09-12T01:28:59.056Z,2.17
2018-09-12T01:31:25.972Z,2.50
2018-09-12T01:33:52.883Z,2.30
2018-09-12T01:36:19.829Z,2.67
2018-09-12T01:38:46.724Z,2.30
2018-09-12T01:41:13.606Z,2.12
2018-09-12T01:43:40.519Z,2.10
2018-09-12T01:46:07.432Z,2.10
2018-09-12T01:48:34.438Z,2.05
2018-09-12T01:51:01.352Z,2.15
2018-09-12T01:53:28.278Z,2.33
2018-09-12T01:55:55.154Z,2.35
2018-09-12T01:58:22.030Z,2.30
2018-09-12T02:00:48.924Z,2.60
2018-09-12T02:03:15.856Z,2.27
2018-09-12T02:05:42.768Z,2.33
2018-09-12T02:08:09.690Z,1.92
2018-09-12T02:10:36.654Z,2.25
2018-09-12T02:13:03.562Z,2.10
2018-09-12T02:15:30.624Z,2.60
2018-09-12T02:17:57.560Z,1.90
2018-09-12T02:20:24.490Z,2.33
2018-09-12T02:22:51.400Z,2.17
2018-09-12T02:25:18.292Z,2.70
2018-09-12T02:27:45.208Z,2.80
2018-09-12T02:30:12.113Z,2.37
2018-09-12T02:32:39.002Z,2.45
2018-09-12T02:35:05.980Z,2.00
2018-09-12T02:37:32.967Z,2.40
2018-09-12T02:39:59.904Z,2.50
2018-09-12T02:42:26.845Z,2.50
2018-09-12T02:44:53.760Z,2.47
2018-09-12T02:47:26.408Z,2.62
2018-09-12T02:49:53.306Z,2.50
2018-09-12T02:52:20.206Z,2.65
2018-09-12T02:54:47.188Z,2.60
2018-09-12T02:57:14.519Z,2.33
2018-09-12T02:59:41.584Z,2.65
2018-09-12T03:02:08.816Z,2.60
2018-09-12T03:04:35.778Z,2.33
2018-09-12T03:07:02.728Z,2.40
2018-09-12T03:09:29.645Z,2.85
2018-09-12T03:11:56.541Z,2.72
2018-09-12T03:14:23.468Z,2.80
2018-09-12T03:16:50.367Z,2.77
2018-09-12T03:19:17.327Z,2.75
2018-09-12T03:21:44.224Z,3.25
2018-09-12T03:24:11.203Z,2.92
2018-09-12T03:26:38.120Z,3.12
2018-09-12T03:29:05.034Z,3.00
2018-09-12T03:31:31.935Z,3.00
2018-09-12T03:33:58.883Z,2.75
2018-09-12T03:36:25.777Z,2.87
2018-09-12T03:38:52.691Z,3.20
2018-09-12T03:41:19.619Z,3.30
2018-09-12T03:43:46.560Z,2.87
2018-09-12T03:46:14.295Z,3.08
2018-09-12T03:48:41.267Z,3.05
2018-09-12T03:51:08.165Z,3.00
2018-09-12T03:53:35.194Z,3.00
2018-09-12T03:56:02.133Z,3.00
2018-09-12T03:58:29.169Z,3.30
2018-09-12T04:00:56.079Z,3.30
2018-09-12T04:03:23.668Z,4.15
2018-09-12T04:05:50.587Z,3.47
2018-09-12T04:08:17.514Z,3.40
2018-09-12T04:10:44.495Z,3.52
2018-09-12T04:13:11.379Z,3.37
2018-09-12T04:15:38.465Z,3.22
2018-09-12T04:18:05.439Z,3.10
2018-09-12T04:20:32.337Z,3.22
2018-09-12T04:22:59.244Z,3.50
2018-09-12T04:25:26.210Z,3.33
2018-09-12T04:27:53.103Z,3.60
2018-09-12T04:30:19.997Z,3.00
2018-09-12T04:32:47.158Z,3.08
2018-09-12T04:35:14.179Z,3.92
2018-09-12T04:37:41.158Z,3.12
2018-09-12T04:40:08.062Z,3.25
2018-09-12T04:42:35.024Z,3.20
2018-09-12T04:45:02.000Z,3.22
2018-09-12T04:47:28.944Z,3.22
2018-09-12T04:49:55.889Z,3.45
2018-09-12T04:52:22.793Z,3.52
2018-09-12T04:54:49.731Z,3.20
2018-09-12T04:57:16.660Z,3.55
2018-09-12T04:59:43.614Z,3.83
2018-09-12T05:02:10.541Z,4.15
2018-09-12T05:04:37.469Z,3.30
2018-09-12T05:07:04.457Z,3.02
2018-09-12T05:09:31.409Z,3.08
2018-09-12T05:11:58.309Z,3.27
2018-09-12T05:14:25.232Z,3.35
2018-09-12T05:16:52.141Z,2.70
2018-09-12T05:19:19.096Z,2.70
2018-09-12T05:21:45.995Z,3.35
2018-09-12T05:24:12.936Z,2.87
2018-09-12T05:26:39.834Z,3.05
2018-09-12T05:29:06.745Z,2.60
2018-09-12T05:31:33.710Z,3.00
2018-09-12T05:34:00.652Z,3.12
2018-09-12T05:36:27.620Z,3.08
2018-09-12T05:38:54.461Z,3.00
2018-09-12T05:41:21.359Z,3.35
2018-09-12T05:43:48.684Z,2.47
2018-09-12T05:46:15.631Z,2.92
2018-09-12T05:48:42.508Z,2.45
2018-09-12T05:51:09.434Z,2.72
2018-09-12T05:53:36.358Z,2.87
2018-09-12T05:56:03.288Z,2.80
2018-09-12T05:58:30.190Z,3.33
2018-09-12T06:00:57.181Z,2.92
2018-09-12T06:03:24.196Z,3.22
2018-09-12T06:05:51.656Z,3.20
2018-09-12T06:08:18.657Z,2.67
2018-09-12T06:10:45.647Z,3.42
2018-09-12T06:13:12.625Z,2.98
2018-09-12T06:15:39.572Z,2.85
2018-09-12T06:18:06.484Z,2.87
2018-09-12T06:20:33.572Z,3.25
2018-09-12T06:23:02.116Z,2.75
2018-09-12T06:25:29.062Z,2.90
2018-09-12T06:27:55.974Z,3.25
2018-09-12T06:30:22.879Z,3.10
2018-09-12T06:32:49.895Z,3.65
2018-09-12T06:35:17.560Z,3.15
2018-09-12T06:37:44.515Z,2.77
2018-09-12T06:40:11.453Z,3.25
2018-09-12T06:42:38.617Z,3.17
2018-09-12T06:45:06.071Z,3.55
2018-09-12T06:47:33.215Z,2.87
2018-09-12T06:50:06.316Z,3.60
2018-09-12T06:52:34.702Z,3.58
2018-09-12T06:55:01.687Z,3.50
2018-09-12T06:57:28.765Z,3.20
2018-09-12T06:59:55.725Z,3.98
2018-09-12T07:02:22.738Z,3.40
2018-09-12T07:04:49.692Z,3.22
2018-09-12T07:07:16.745Z,2.70
2018-09-12T07:09:43.671Z,3.08
2018-09-12T07:12:10.594Z,2.90
2018-09-12T07:14:37.499Z,3.45
2018-09-12T07:17:04.607Z,3.00
2018-09-12T07:19:31.553Z,2.90
2018-09-12T07:21:58.541Z,3.20
2018-09-12T07:24:25.530Z,3.05
2018-09-12T07:26:53.009Z,2.92
2018-09-12T07:29:20.066Z,3.60
2018-09-12T07:31:48.643Z,3.40
2018-09-12T07:34:15.740Z,3.83
2018-09-12T07:36:42.682Z,3.90
2018-09-12T07:39:11.372Z,3.27
2018-09-12T07:41:38.381Z,3.17
2018-09-12T07:44:05.366Z,2.90
2018-09-12T07:46:32.581Z,2.72
2018-09-12T07:48:59.633Z,3.10
2018-09-12T07:51:26.640Z,3.17
2018-09-12T07:53:53.768Z,2.95
2018-09-12T07:56:20.838Z,3.62
2018-09-12T07:58:48.531Z,3.08
2018-09-12T08:01:15.693Z,3.00
2018-09-12T08:03:42.818Z,2.72
2018-09-12T08:06:09.862Z,2.65
2018-09-12T08:08:36.849Z,2.90
2018-09-12T08:11:03.889Z,3.27
2018-09-12T08:13:30.885Z,3.40
2018-09-12T08:15:58.835Z,3.00
2018-09-12T08:18:25.781Z,2.87
2018-09-12T08:20:52.711Z,3.00
2018-09-12T08:23:19.731Z,2.90
2018-09-12T08:25:46.646Z,2.92
2018-09-12T08:28:13.684Z,2.40
2018-09-12T08:30:40.652Z,3.08
2018-09-12T08:33:07.607Z,2.47
2018-09-12T08:35:34.592Z,2.70
2018-09-12T08:38:01.532Z,3.00
2018-09-12T08:40:28.527Z,3.22
2018-09-12T08:42:55.530Z,2.98
2018-09-12T08:45:23.532Z,2.92
2018-09-12T08:47:51.224Z,3.00
2018-09-12T08:55:12.459Z,2.87
2018-09-12T08:57:40.054Z,2.62
2018-09-12T09:00:08.452Z,2.10
2018-09-12T09:02:35.431Z,2.50
2018-09-12T09:05:02.370Z,3.08
2018-09-12T09:07:29.395Z,3.00
2018-09-12T09:09:56.568Z,3.17
2018-09-12T09:12:23.625Z,2.85
2018-09-12T09:14:51.514Z,2.83
2018-09-12T09:17:19.631Z,2.77
2018-09-12T09:19:47.319Z,2.77
2018-09-12T09:22:15.583Z,3.37
2018-09-12T09:24:42.573Z,3.05
2018-09-12T09:27:10.430Z,3.13
2018-09-12T09:29:37.818Z,5.80
2018-09-12T09:32:05.259Z,5.75
2018-09-12T09:34:32.366Z,3.67
2018-09-12T09:36:59.333Z,4.62
2018-09-12T09:39:27.095Z,4.22
2018-09-12T09:41:54.053Z,3.72
2018-09-12T09:44:21.831Z,3.00
2018-09-12T09:46:48.927Z,2.50
2018-09-12T09:49:16.051Z,2.33
2018-09-12T09:51:43.056Z,2.40
2018-09-12T09:54:10.080Z,2.17
2018-09-12T09:56:37.159Z,2.20
2018-09-12T09:59:04.212Z,2.50
2018-09-12T10:01:36.999Z,2.92
2018-09-12T10:04:09.639Z,3.85
2018-09-12T10:06:42.379Z,3.47
2018-09-12T10:09:15.220Z,5.05
2018-09-12T10:11:42.202Z,2.60
2018-09-12T10:14:09.208Z,2.60
2018-09-12T10:16:36.142Z,2.33
2018-09-12T10:19:03.124Z,1.95
2018-09-12T10:21:30.034Z,1.85
2018-09-12T10:23:56.978Z,1.70
2018-09-12T10:26:23.904Z,2.33
2018-09-12T10:28:50.826Z,2.62
2018-09-12T10:31:17.780Z,2.15
2018-09-12T10:33:44.760Z,2.72
2018-09-12T10:36:11.694Z,3.40
2018-09-12T10:38:38.694Z,2.62
2018-09-12T10:41:06.710Z,2.10
2018-09-12T10:43:34.298Z,2.22
2018-09-12T10:46:01.289Z,2.20
2018-09-12T10:48:29.270Z,2.07
2018-09-12T10:50:56.271Z,2.10
2018-09-12T10:53:23.430Z,2.02
2018-09-12T10:55:50.345Z,3.02
2018-09-12T10:58:17.283Z,2.62
2018-09-12T11:00:44.196Z,2.20
2018-09-12T11:03:11.265Z,2.02
2018-09-12T11:05:38.292Z,2.10
2018-09-12T11:08:05.274Z,2.05
2018-09-12T11:10:32.272Z,2.65
2018-09-12T11:12:59.194Z,2.70
2018-09-12T11:15:26.117Z,3.12
2018-09-12T11:17:54.510Z,2.85
2018-09-12T11:20:21.530Z,1.90
2018-09-12T11:22:48.534Z,1.90
2018-09-12T11:25:15.472Z,2.87
2018-09-12T11:27:42.464Z,2.77
2018-09-12T11:30:09.449Z,2.55
2018-09-12T11:32:37.264Z,3.12
2018-09-12T11:35:04.408Z,6.87
2018-09-12T11:37:31.384Z,2.20
2018-09-12T11:39:59.510Z,2.30
2018-09-12T11:42:26.704Z,2.30
2018-09-12T11:44:54.534Z,2.22
2018-09-12T11:47:21.865Z,2.37
2018-09-12T11:49:48.871Z,2.40
2018-09-12T11:52:15.875Z,3.00
2018-09-12T11:54:42.952Z,2.33
2018-09-12T11:57:09.878Z,2.27
2018-09-12T11:59:38.022Z,2.02
2018-09-12T12:02:05.174Z,2.62
2018-09-12T12:04:32.216Z,2.27
2018-09-12T12:06:59.728Z,2.35
2018-09-12T12:09:26.679Z,2.00
2018-09-12T12:11:55.162Z,1.98
2018-09-12T12:14:22.298Z,2.25
2018-09-12T12:16:49.267Z,2.30
2018-09-12T12:19:16.249Z,2.90
2018-09-12T12:21:43.187Z,2.80
2018-09-12T12:24:10.278Z,2.47
2018-09-12T12:26:37.231Z,2.20
2018-09-12T12:29:04.280Z,2.60
2018-09-12T12:31:31.432Z,3.50
2018-09-12T12:33:58.416Z,2.42
2018-09-12T12:36:25.369Z,2.15
2018-09-12T12:38:53.397Z,2.20
2018-09-12T12:41:20.419Z,2.22
2018-09-12T12:43:47.395Z,2.20
2018-09-12T12:46:15.072Z,3.02
2018-09-12T12:48:42.041Z,2.37
2018-09-12T12:51:08.963Z,2.10
2018-09-12T12:53:35.971Z,2.17
2018-09-12T12:56:03.057Z,1.70
2018-09-12T12:58:30.067Z,2.10
2018-09-12T13:00:57.101Z,2.20
2018-09-12T13:03:24.155Z,2.27
2018-09-12T13:05:51.145Z,2.20
2018-09-12T13:08:18.115Z,2.60
2018-09-12T13:10:45.113Z,2.50
2018-09-12T13:13:12.075Z,1.90
2018-09-12T13:15:39.083Z,2.70
2018-09-12T13:18:06.111Z,2.02
2018-09-12T13:20:33.115Z,2.15
2018-09-12T13:23:00.075Z,2.47
2018-09-12T13:25:27.249Z,2.60
2018-09-12T13:27:54.265Z,3.33
2018-09-12T13:30:21.191Z,2.58
2018-09-12T13:32:49.175Z,2.40
2018-09-12T13:35:16.120Z,2.70
2018-09-12T13:37:43.777Z,1.90
2018-09-12T13:40:10.811Z,2.72
2018-09-12T13:42:37.792Z,2.52
2018-09-12T13:45:04.924Z,2.10
2018-09-12T13:47:31.927Z,2.27
2018-09-12T13:49:58.847Z,2.50
2018-09-12T13:52:26.059Z,2.12
2018-09-12T13:54:53.132Z,2.42
2018-09-12T13:57:20.091Z,2.22
2018-09-12T13:59:47.133Z,5.67
2018-09-12T14:02:14.105Z,3.50
2018-09-12T14:04:41.912Z,3.92
2018-09-12T14:07:08.979Z,2.40
2018-09-12T14:09:35.905Z,2.45
2018-09-12T14:12:03.287Z,2.77
2018-09-12T14:14:30.275Z,2.65
2018-09-12T14:16:57.311Z,2.37
2018-09-12T14:19:24.297Z,2.70
2018-09-12T14:21:51.823Z,7.95
2018-09-12T14:24:18.767Z,2.92
2018-09-12T14:26:45.746Z,2.52
2018-09-12T14:29:12.735Z,2.70
2018-09-12T14:31:39.683Z,3.10
2018-09-12T14:34:06.649Z,2.70
2018-09-12T14:36:34.799Z,3.10
2018-09-12T14:39:01.860Z,2.47
2018-09-12T14:41:28.813Z,2.85
2018-09-12T14:43:55.722Z,2.60
2018-09-12T14:46:23.199Z,2.50
2018-09-12T14:48:50.116Z,2.67
2018-09-12T14:51:17.148Z,2.50
2018-09-12T14:53:44.151Z,2.80
2018-09-12T14:56:11.109Z,2.62
2018-09-12T14:58:38.802Z,3.37
2018-09-12T15:01:05.835Z,4.22
2018-09-12T15:03:32.787Z,3.25
2018-09-12T15:05:59.763Z,2.85
2018-09-12T15:08:26.721Z,3.25
2018-09-12T15:10:53.787Z,3.47
2018-09-12T15:13:21.431Z,3.58
2018-09-12T15:15:48.380Z,3.87
2018-09-12T15:18:15.417Z,3.60
2018-09-12T15:20:42.680Z,3.45
2018-09-12T15:23:09.759Z,4.17
2018-09-12T15:25:39.357Z,3.55
2018-09-12T15:28:06.945Z,3.80
2018-09-12T15:30:34.041Z,4.03
2018-09-12T15:33:01.058Z,4.30
2018-09-12T15:35:28.071Z,4.12
2018-09-12T15:37:55.016Z,3.98
2018-09-12T15:40:22.023Z,3.60
2018-09-12T15:42:49.707Z,2.92
2018-09-12T15:45:16.705Z,3.10
2018-09-12T15:47:44.240Z,2.92
2018-09-12T15:50:11.403Z,2.83
2018-09-12T15:52:38.423Z,3.22
2018-09-12T15:55:05.480Z,3.62
2018-09-12T15:57:32.483Z,2.95
2018-09-12T15:59:59.799Z,2.95
2018-09-12T16:02:26.857Z,3.72
2018-09-12T16:04:55.346Z,3.15
2018-09-12T16:07:22.917Z,3.12
2018-09-12T16:09:50.998Z,3.45
2018-09-12T16:12:17.993Z,3.35
2018-09-12T16:14:44.961Z,3.20
2018-09-12T16:17:11.905Z,3.10
2018-09-12T16:19:39.552Z,3.33
2018-09-12T16:22:06.549Z,3.40
2018-09-12T16:24:33.637Z,4.00
2018-09-12T16:27:00.739Z,3.62
2018-09-12T16:29:28.547Z,3.55
2018-09-12T16:31:56.511Z,3.62
2018-09-12T16:34:23.449Z,3.12
2018-09-12T16:36:50.445Z,3.58
2018-09-12T16:39:17.372Z,2.90
2018-09-12T16:41:44.265Z,2.60
2018-09-12T16:44:11.172Z,2.42
2018-09-12T16:46:38.073Z,2.70
2018-09-12T16:49:05.255Z,3.02
2018-09-12T16:51:32.288Z,2.47
2018-09-12T16:53:59.292Z,2.67
2018-09-12T16:56:26.314Z,3.12
2018-09-12T16:58:53.238Z,2.95
2018-09-12T17:01:20.199Z,3.00
2018-09-12T17:03:47.099Z,3.12
2018-09-12T17:06:14.029Z,3.00
2018-09-12T17:08:40.926Z,3.10
2018-09-12T17:11:07.898Z,3.58
2018-09-12T17:13:34.917Z,2.87
2018-09-12T17:16:01.897Z,2.70
2018-09-12T17:18:28.837Z,2.83
2018-09-12T17:20:55.855Z,2.72
2018-09-12T17:23:22.863Z,2.90
2018-09-12T17:25:49.789Z,2.75
2018-09-12T17:28:16.759Z,2.42
2018-09-12T17:30:43.673Z,2.67
2018-09-12T17:33:10.564Z,2.87
2018-09-12T17:35:37.559Z,2.90
2018-09-12T17:38:04.708Z,2.87
2018-09-12T17:40:31.642Z,2.70
2018-09-12T17:42:58.629Z,2.65
2018-09-12T17:45:25.546Z,2.25
2018-09-12T17:47:52.540Z,2.30
2018-09-12T17:50:19.445Z,2.62
2018-09-12T17:52:47.216Z,2.15
2018-09-12T17:55:14.116Z,3.20
2018-09-12T17:57:41.176Z,2.87
2018-09-12T18:00:08.497Z,2.50
2018-09-12T18:02:35.445Z,3.02
2018-09-12T18:05:02.404Z,2.37
2018-09-12T18:07:29.672Z,2.27
2018-09-12T18:09:56.624Z,2.40
2018-09-12T18:12:23.546Z,2.80
2018-09-12T18:14:50.568Z,2.60
2018-09-12T18:17:17.506Z,1.90
2018-09-12T18:19:44.440Z,1.72
2018-09-12T18:22:11.434Z,1.72
2018-09-12T18:24:38.394Z,1.50
2018-09-12T18:27:05.509Z,1.72
2018-09-12T18:29:32.481Z,2.33
2018-09-12T18:31:59.428Z,1.57
2018-09-12T18:34:26.333Z,1.42
2018-09-12T18:36:53.293Z,1.77
2018-09-12T18:39:20.300Z,1.90
2018-09-12T18:41:47.258Z,1.62
2018-09-12T18:44:14.182Z,1.80
2018-09-12T18:46:41.158Z,1.47
2018-09-12T18:49:11.355Z,1.50
2018-09-12T18:51:38.258Z,1.15
2018-09-12T18:54:05.423Z,1.12
2018-09-12T18:56:32.363Z,1.15
2018-09-12T18:58:59.400Z,0.95
2018-09-12T19:01:26.406Z,1.02
2018-09-12T19:03:53.459Z,1.10
2018-09-12T19:06:22.306Z,0.95
2018-09-12T19:08:49.346Z,1.37
2018-09-12T19:11:16.429Z,1.10
2018-09-12T19:13:43.652Z,1.00
2018-09-12T19:16:10.974Z,1.27
2018-09-12T19:18:38.226Z,1.10
2018-09-12T19:21:05.545Z,1.20
2018-09-12T19:23:33.107Z,1.10
2018-09-12T19:26:00.630Z,1.20
2018-09-12T19:28:27.984Z,1.30
2018-09-12T19:30:55.013Z,1.05
2018-09-12T19:33:22.038Z,1.05
2018-09-12T19:35:49.614Z,1.20
2018-09-12T19:38:16.676Z,1.12
2018-09-12T19:40:43.643Z,1.30
2018-09-12T19:43:10.605Z,1.20
2018-09-12T19:45:37.596Z,1.00
2018-09-12T19:48:04.646Z,0.98
2018-09-12T19:50:31.643Z,1.00
2018-09-12T19:52:58.592Z,0.80
2018-09-12T19:55:25.542Z,0.82
2018-09-12T19:57:53.246Z,0.82
2018-09-12T20:00:20.437Z,1.00
2018-09-12T20:02:47.520Z,0.98
2018-09-12T20:05:14.457Z,1.60
2018-09-12T20:07:41.496Z,1.30
2018-09-12T20:10:08.489Z,1.10
2018-09-12T20:12:35.575Z,0.95
2018-09-12T20:15:02.589Z,0.82
2018-09-12T20:17:29.613Z,1.47
2018-09-12T20:19:56.546Z,1.40
2018-09-12T20:22:23.506Z,1.07
2018-09-12T20:24:50.616Z,1.00
2018-09-12T20:27:17.712Z,1.42
2018-09-12T20:29:46.032Z,1.15
2018-09-12T20:32:13.126Z,1.13
2018-09-12T20:34:40.111Z,1.10
2018-09-12T20:37:07.092Z,0.98
2018-09-12T20:39:34.038Z,1.00
2018-09-12T20:42:01.169Z,1.12
2018-09-12T20:44:28.157Z,1.20
2018-09-12T20:46:55.278Z,0.82
2018-09-12T20:49:22.290Z,1.07
2018-09-12T20:51:49.281Z,1.00
2018-09-12T20:54:16.612Z,1.20
2018-09-12T20:56:44.440Z,1.45
2018-09-12T20:59:12.370Z,1.82
2018-09-12T21:01:39.432Z,1.30
2018-09-12T21:04:06.710Z,1.20
2018-09-12T21:06:34.154Z,1.20
2018-09-12T21:09:01.412Z,1.30
2018-09-12T21:11:28.358Z,1.20
2018-09-12T21:13:55.495Z,1.35
2018-09-12T21:16:22.453Z,1.20
2018-09-12T21:18:49.442Z,1.10
2018-09-12T21:21:16.439Z,1.15
2018-09-12T21:23:43.507Z,1.20
2018-09-12T21:26:10.538Z,1.30
2018-09-12T21:28:37.430Z,1.25
2018-09-12T21:31:04.386Z,1.40
2018-09-12T21:33:32.023Z,1.40
2018-09-12T21:35:58.954Z,1.35
2018-09-12T21:38:25.912Z,1.42
2018-09-12T21:40:52.863Z,1.60
2018-09-12T21:43:19.840Z,1.45
2018-09-12T21:45:46.762Z,1.40
2018-09-12T21:48:13.774Z,1.95
2018-09-12T21:50:40.702Z,1.60
2018-09-12T21:53:08.245Z,1.50
2018-09-12T21:55:35.205Z,1.20
2018-09-12T21:58:02.146Z,1.40
2018-09-12T22:00:29.098Z,1.30
2018-09-12T22:02:56.065Z,1.42
2018-09-12T22:05:23.073Z,1.52
2018-09-12T22:07:50.662Z,1.60
2018-09-12T22:10:17.548Z,1.30
2018-09-12T22:12:44.497Z,1.40
2018-09-12T22:15:11.427Z,1.25
2018-09-12T22:17:38.638Z,1.57
2018-09-12T22:20:05.596Z,1.30
2018-09-12T22:22:32.626Z,1.32
2018-09-12T22:24:59.791Z,1.55
2018-09-12T22:27:26.846Z,1.30
2018-09-12T22:29:53.730Z,1.60
2018-09-12T22:32:20.672Z,1.32
2018-09-12T22:34:47.642Z,1.50
2018-09-12T22:37:14.554Z,1.62
2018-09-12T22:39:41.430Z,1.30
2018-09-12T22:42:08.350Z,1.60
2018-09-12T22:44:35.505Z,1.10
2018-09-12T22:47:03.044Z,1.47
2018-09-12T22:49:30.174Z,1.30
2018-09-12T22:51:57.458Z,1.47
2018-09-12T22:54:24.374Z,1.40
2018-09-12T22:56:51.294Z,1.27
2018-09-12T22:59:18.208Z,0.95
2018-09-12T23:01:45.117Z,1.10
2018-09-12T23:04:12.112Z,1.35
2018-09-12T23:06:39.035Z,1.00
2018-09-12T23:09:07.055Z,1.32
2018-09-12T23:11:34.058Z,1.30
2018-09-12T23:14:00.932Z,1.00
2018-09-12T23:16:27.879Z,1.27
2018-09-12T23:18:54.800Z,1.10
2018-09-12T23:21:21.687Z,1.20
2018-09-12T23:23:48.560Z,0.98
2018-09-12T23:26:15.454Z,1.20
2018-09-12T23:28:42.602Z,1.40
2018-09-12T23:31:09.511Z,1.35
2018-09-12T23:33:36.438Z,1.07
2018-09-12T23:36:03.331Z,1.27
2018-09-12T23:38:30.405Z,1.22
2018-09-12T23:40:57.335Z,1.23
2018-09-12T23:43:24.191Z,0.98
2018-09-12T23:45:51.140Z,1.27
2018-09-12T23:48:18.057Z,1.00
2018-09-12T23:50:45.318Z,1.25
2018-09-12T23:53:12.291Z,1.00
2018-09-12T23:55:39.182Z,1.10
2018-09-12T23:58:06.107Z,0.90
